sensor_id;sensor_type;location;lat;lon;timestamp;P1;durP1;ratioP1;P2;durP2;ratioP2
53833;SDS011;39735;51.432;5.482;2023-03-01T00:01:46;24.27;;;8.48;;
53833;SDS011;39735;51.432;5.482;2023-03-01T00:04:11;28.15;;;7.03;;
53833;SDS011;39735;51.432;5.482;2023-03-01T00:06:37;14.60;;;7.75;;
53833;SDS011;39735;51.432;5.482;2023-03-01T00:09:03;13.32;;;8.90;;
53833;SDS011;39735;51.432;5.482;2023-03-01T00:11:30;14.45;;;9.27;;
53833;SDS011;39735;51.432;5.482;2023-03-01T00:13:58;18.52;;;8.85;;
53833;SDS011;39735;51.432;5.482;2023-03-01T00:16:30;16.70;;;8.20;;
53833;SDS011;39735;51.432;5.482;2023-03-01T00:19:00;18.40;;;9.00;;
53833;SDS011;39735;51.432;5.482;2023-03-01T00:21:26;14.10;;;9.20;;
53833;SDS011;39735;51.432;5.482;2023-03-01T00:23:52;10.10;;;8.02;;
53833;SDS011;39735;51.432;5.482;2023-03-01T00:26:18;12.48;;;7.70;;
53833;SDS011;39735;51.432;5.482;2023-03-01T00:28:45;13.10;;;8.05;;
53833;SDS011;39735;51.432;5.482;2023-03-01T00:31:15;21.67;;;7.95;;
53833;SDS011;39735;51.432;5.482;2023-03-01T00:33:43;16.75;;;9.10;;
53833;SDS011;39735;51.432;5.482;2023-03-01T00:36:10;12.25;;;8.65;;
53833;SDS011;39735;51.432;5.482;2023-03-01T00:38:37;13.77;;;7.65;;
53833;SDS011;39735;51.432;5.482;2023-03-01T00:41:04;20.08;;;9.02;;
53833;SDS011;39735;51.432;5.482;2023-03-01T00:43:30;12.32;;;6.85;;
53833;SDS011;39735;51.432;5.482;2023-03-01T00:46:02;21.63;;;8.73;;
53833;SDS011;39735;51.432;5.482;2023-03-01T00:48:32;11.18;;;7.80;;
53833;SDS011;39735;51.432;5.482;2023-03-01T00:51:03;10.68;;;8.07;;
53833;SDS011;39735;51.432;5.482;2023-03-01T00:53:33;12.65;;;8.57;;
53833;SDS011;39735;51.432;5.482;2023-03-01T00:55:59;17.17;;;7.97;;
53833;SDS011;39735;51.432;5.482;2023-03-01T00:58:24;21.25;;;7.85;;
53833;SDS011;39735;51.432;5.482;2023-03-01T01:00:50;8.50;;;6.60;;
53833;SDS011;39735;51.432;5.482;2023-03-01T01:03:17;11.10;;;8.73;;
53833;SDS011;39735;51.432;5.482;2023-03-01T01:05:43;9.98;;;6.53;;
53833;SDS011;39735;51.432;5.482;2023-03-01T01:08:08;11.48;;;7.28;;
53833;SDS011;39735;51.432;5.482;2023-03-01T01:10:34;18.08;;;7.80;;
53833;SDS011;39735;51.432;5.482;2023-03-01T01:12:59;18.90;;;8.45;;
53833;SDS011;39735;51.432;5.482;2023-03-01T01:15:25;7.88;;;6.50;;
53833;SDS011;39735;51.432;5.482;2023-03-01T01:17:51;16.92;;;9.35;;
53833;SDS011;39735;51.432;5.482;2023-03-01T01:20:16;11.60;;;7.63;;
53833;SDS011;39735;51.432;5.482;2023-03-01T01:22:42;13.75;;;9.23;;
53833;SDS011;39735;51.432;5.482;2023-03-01T01:25:07;13.32;;;7.93;;
53833;SDS011;39735;51.432;5.482;2023-03-01T01:27:33;8.88;;;7.18;;
53833;SDS011;39735;51.432;5.482;2023-03-01T01:29:58;12.10;;;8.43;;
53833;SDS011;39735;51.432;5.482;2023-03-01T01:32:24;13.57;;;8.77;;
53833;SDS011;39735;51.432;5.482;2023-03-01T01:34:49;27.00;;;8.85;;
53833;SDS011;39735;51.432;5.482;2023-03-01T01:37:15;14.30;;;7.55;;
53833;SDS011;39735;51.432;5.482;2023-03-01T01:39:40;14.88;;;8.38;;
53833;SDS011;39735;51.432;5.482;2023-03-01T01:42:05;12.95;;;7.93;;
53833;SDS011;39735;51.432;5.482;2023-03-01T01:44:33;10.02;;;7.85;;
53833;SDS011;39735;51.432;5.482;2023-03-01T01:47:00;13.48;;;7.93;;
53833;SDS011;39735;51.432;5.482;2023-03-01T01:54:44;9.77;;;7.50;;
53833;SDS011;39735;51.432;5.482;2023-03-01T01:57:43;8.70;;;6.97;;
53833;SDS011;39735;51.432;5.482;2023-03-01T02:02:41;23.58;;;7.10;;
53833;SDS011;39735;51.432;5.482;2023-03-01T02:05:20;11.52;;;7.97;;
53833;SDS011;39735;51.432;5.482;2023-03-01T02:08:11;22.35;;;8.88;;
53833;SDS011;39735;51.432;5.482;2023-03-01T02:10:38;11.02;;;7.07;;
53833;SDS011;39735;51.432;5.482;2023-03-01T02:13:03;9.82;;;6.82;;
53833;SDS011;39735;51.432;5.482;2023-03-01T02:15:31;13.40;;;8.98;;
53833;SDS011;39735;51.432;5.482;2023-03-01T02:17:58;19.10;;;9.20;;
53833;SDS011;39735;51.432;5.482;2023-03-01T02:20:29;11.43;;;8.43;;
53833;SDS011;39735;51.432;5.482;2023-03-01T02:22:59;11.27;;;6.10;;
53833;SDS011;39735;51.432;5.482;2023-03-01T02:28:05;16.15;;;8.32;;
53833;SDS011;39735;51.432;5.482;2023-03-01T02:30:41;7.88;;;7.07;;
53833;SDS011;39735;51.432;5.482;2023-03-01T02:33:29;15.35;;;6.53;;
53833;SDS011;39735;51.432;5.482;2023-03-01T02:36:02;21.60;;;8.00;;
53833;SDS011;39735;51.432;5.482;2023-03-01T02:38:30;11.27;;;8.13;;
53833;SDS011;39735;51.432;5.482;2023-03-01T02:40:56;15.70;;;9.23;;
53833;SDS011;39735;51.432;5.482;2023-03-01T02:43:23;10.35;;;7.85;;
53833;SDS011;39735;51.432;5.482;2023-03-01T02:45:52;14.52;;;8.00;;
53833;SDS011;39735;51.432;5.482;2023-03-01T02:48:18;18.70;;;8.50;;
53833;SDS011;39735;51.432;5.482;2023-03-01T02:53:59;11.20;;;7.85;;
53833;SDS011;39735;51.432;5.482;2023-03-01T02:56:32;20.52;;;8.40;;
53833;SDS011;39735;51.432;5.482;2023-03-01T02:58:58;13.98;;;8.07;;
53833;SDS011;39735;51.432;5.482;2023-03-01T03:01:25;14.10;;;8.40;;
53833;SDS011;39735;51.432;5.482;2023-03-01T03:04:01;14.60;;;9.18;;
53833;SDS011;39735;51.432;5.482;2023-03-01T03:06:26;15.25;;;10.00;;
53833;SDS011;39735;51.432;5.482;2023-03-01T03:08:52;15.30;;;9.02;;
53833;SDS011;39735;51.432;5.482;2023-03-01T03:11:17;16.00;;;8.73;;
53833;SDS011;39735;51.432;5.482;2023-03-01T03:13:42;14.20;;;8.15;;
53833;SDS011;39735;51.432;5.482;2023-03-01T03:16:12;13.40;;;8.45;;
53833;SDS011;39735;51.432;5.482;2023-03-01T03:18:38;11.80;;;8.00;;
53833;SDS011;39735;51.432;5.482;2023-03-01T03:21:06;21.00;;;8.98;;
53833;SDS011;39735;51.432;5.482;2023-03-01T03:23:35;12.80;;;8.90;;
53833;SDS011;39735;51.432;5.482;2023-03-01T03:26:01;11.23;;;8.07;;
53833;SDS011;39735;51.432;5.482;2023-03-01T03:28:29;15.75;;;10.02;;
53833;SDS011;39735;51.432;5.482;2023-03-01T03:30:55;10.95;;;8.55;;
53833;SDS011;39735;51.432;5.482;2023-03-01T03:33:21;11.55;;;8.45;;
53833;SDS011;39735;51.432;5.482;2023-03-01T03:35:47;21.38;;;8.20;;
53833;SDS011;39735;51.432;5.482;2023-03-01T03:38:14;13.50;;;7.88;;
53833;SDS011;39735;51.432;5.482;2023-03-01T03:40:43;13.82;;;8.50;;
53833;SDS011;39735;51.432;5.482;2023-03-01T03:43:11;21.30;;;9.48;;
53833;SDS011;39735;51.432;5.482;2023-03-01T03:45:43;7.40;;;6.70;;
53833;SDS011;39735;51.432;5.482;2023-03-01T03:48:09;30.67;;;7.47;;
53833;SDS011;39735;51.432;5.482;2023-03-01T03:50:35;10.38;;;7.85;;
53833;SDS011;39735;51.432;5.482;2023-03-01T03:53:03;11.85;;;8.20;;
53833;SDS011;39735;51.432;5.482;2023-03-01T03:55:30;22.58;;;10.27;;
53833;SDS011;39735;51.432;5.482;2023-03-01T03:57:57;18.92;;;8.57;;
53833;SDS011;39735;51.432;5.482;2023-03-01T04:00:25;14.90;;;9.57;;
53833;SDS011;39735;51.432;5.482;2023-03-01T04:02:51;21.25;;;10.63;;
53833;SDS011;39735;51.432;5.482;2023-03-01T04:05:17;37.30;;;9.48;;
53833;SDS011;39735;51.432;5.482;2023-03-01T04:07:44;14.57;;;9.35;;
53833;SDS011;39735;51.432;5.482;2023-03-01T04:10:14;8.98;;;7.63;;
53833;SDS011;39735;51.432;5.482;2023-03-01T04:12:41;10.63;;;8.48;;
53833;SDS011;39735;51.432;5.482;2023-03-01T04:15:08;13.55;;;8.40;;
53833;SDS011;39735;51.432;5.482;2023-03-01T04:17:40;13.50;;;8.85;;
53833;SDS011;39735;51.432;5.482;2023-03-01T04:20:08;14.95;;;8.32;;
53833;SDS011;39735;51.432;5.482;2023-03-01T04:22:37;24.08;;;9.63;;
53833;SDS011;39735;51.432;5.482;2023-03-01T04:25:03;12.07;;;9.50;;
53833;SDS011;39735;51.432;5.482;2023-03-01T04:27:32;14.57;;;8.40;;
53833;SDS011;39735;51.432;5.482;2023-03-01T04:30:01;18.42;;;9.88;;
53833;SDS011;39735;51.432;5.482;2023-03-01T04:32:27;20.35;;;10.13;;
53833;SDS011;39735;51.432;5.482;2023-03-01T04:34:53;15.77;;;8.98;;
53833;SDS011;39735;51.432;5.482;2023-03-01T04:37:18;21.65;;;10.02;;
53833;SDS011;39735;51.432;5.482;2023-03-01T04:39:43;11.98;;;9.10;;
53833;SDS011;39735;51.432;5.482;2023-03-01T04:42:12;18.17;;;10.32;;
53833;SDS011;39735;51.432;5.482;2023-03-01T04:44:38;13.30;;;9.05;;
53833;SDS011;39735;51.432;5.482;2023-03-01T04:47:04;16.55;;;10.23;;
53833;SDS011;39735;51.432;5.482;2023-03-01T04:49:29;21.45;;;9.05;;
53833;SDS011;39735;51.432;5.482;2023-03-01T04:51:55;32.38;;;10.00;;
53833;SDS011;39735;51.432;5.482;2023-03-01T04:54:23;16.45;;;9.02;;
53833;SDS011;39735;51.432;5.482;2023-03-01T04:56:48;15.07;;;9.57;;
53833;SDS011;39735;51.432;5.482;2023-03-01T04:59:14;15.60;;;9.13;;
53833;SDS011;39735;51.432;5.482;2023-03-01T05:01:39;13.52;;;9.73;;
53833;SDS011;39735;51.432;5.482;2023-03-01T05:04:07;15.43;;;11.07;;
53833;SDS011;39735;51.432;5.482;2023-03-01T05:06:38;16.38;;;8.93;;
53833;SDS011;39735;51.432;5.482;2023-03-01T05:09:04;17.83;;;8.73;;
53833;SDS011;39735;51.432;5.482;2023-03-01T05:11:30;21.55;;;9.40;;
53833;SDS011;39735;51.432;5.482;2023-03-01T05:13:58;17.45;;;9.60;;
53833;SDS011;39735;51.432;5.482;2023-03-01T05:16:24;17.13;;;9.57;;
53833;SDS011;39735;51.432;5.482;2023-03-01T05:18:49;11.82;;;8.57;;
53833;SDS011;39735;51.432;5.482;2023-03-01T05:21:17;21.80;;;10.13;;
53833;SDS011;39735;51.432;5.482;2023-03-01T05:23:43;12.93;;;9.18;;
53833;SDS011;39735;51.432;5.482;2023-03-01T05:26:09;14.23;;;10.63;;
53833;SDS011;39735;51.432;5.482;2023-03-01T05:28:34;22.40;;;10.80;;
53833;SDS011;39735;51.432;5.482;2023-03-01T05:31:00;11.38;;;10.18;;
53833;SDS011;39735;51.432;5.482;2023-03-01T05:33:26;24.35;;;9.75;;
53833;SDS011;39735;51.432;5.482;2023-03-01T05:35:52;19.60;;;9.57;;
53833;SDS011;39735;51.432;5.482;2023-03-01T05:38:18;16.35;;;10.50;;
53833;SDS011;39735;51.432;5.482;2023-03-01T05:40:45;15.80;;;10.18;;
53833;SDS011;39735;51.432;5.482;2023-03-01T05:43:12;14.90;;;9.77;;
53833;SDS011;39735;51.432;5.482;2023-03-01T05:45:38;14.35;;;9.40;;
53833;SDS011;39735;51.432;5.482;2023-03-01T05:48:05;19.13;;;10.45;;
53833;SDS011;39735;51.432;5.482;2023-03-01T05:50:32;21.30;;;10.57;;
53833;SDS011;39735;51.432;5.482;2023-03-01T05:53:03;23.08;;;9.23;;
53833;SDS011;39735;51.432;5.482;2023-03-01T05:55:30;16.73;;;10.82;;
53833;SDS011;39735;51.432;5.482;2023-03-01T05:58:00;18.60;;;11.15;;
53833;SDS011;39735;51.432;5.482;2023-03-01T06:00:30;17.17;;;11.35;;
53833;SDS011;39735;51.432;5.482;2023-03-01T06:02:56;15.85;;;9.15;;
53833;SDS011;39735;51.432;5.482;2023-03-01T06:05:22;15.55;;;10.65;;
53833;SDS011;39735;51.432;5.482;2023-03-01T06:07:48;13.23;;;9.77;;
53833;SDS011;39735;51.432;5.482;2023-03-01T06:10:14;16.05;;;9.75;;
53833;SDS011;39735;51.432;5.482;2023-03-01T06:12:40;13.65;;;9.40;;
53833;SDS011;39735;51.432;5.482;2023-03-01T06:15:07;15.70;;;9.85;;
53833;SDS011;39735;51.432;5.482;2023-03-01T06:17:37;19.83;;;9.52;;
53833;SDS011;39735;51.432;5.482;2023-03-01T06:20:08;16.00;;;9.75;;
53833;SDS011;39735;51.432;5.482;2023-03-01T06:22:38;14.30;;;10.00;;
53833;SDS011;39735;51.432;5.482;2023-03-01T06:25:04;19.25;;;10.90;;
53833;SDS011;39735;51.432;5.482;2023-03-01T06:27:31;18.98;;;12.55;;
53833;SDS011;39735;51.432;5.482;2023-03-01T06:29:56;20.40;;;9.15;;
53833;SDS011;39735;51.432;5.482;2023-03-01T06:32:22;16.70;;;10.88;;
53833;SDS011;39735;51.432;5.482;2023-03-01T06:34:47;20.45;;;11.63;;
53833;SDS011;39735;51.432;5.482;2023-03-01T06:37:13;23.60;;;11.80;;
53833;SDS011;39735;51.432;5.482;2023-03-01T06:39:38;14.95;;;10.30;;
53833;SDS011;39735;51.432;5.482;2023-03-01T06:42:04;19.20;;;10.73;;
53833;SDS011;39735;51.432;5.482;2023-03-01T06:44:29;14.80;;;10.77;;
53833;SDS011;39735;51.432;5.482;2023-03-01T06:46:55;16.48;;;10.73;;
53833;SDS011;39735;51.432;5.482;2023-03-01T06:49:20;25.83;;;12.57;;
53833;SDS011;39735;51.432;5.482;2023-03-01T06:51:46;14.20;;;10.80;;
53833;SDS011;39735;51.432;5.482;2023-03-01T06:54:12;20.15;;;10.98;;
53833;SDS011;39735;51.432;5.482;2023-03-01T06:56:37;18.20;;;11.82;;
53833;SDS011;39735;51.432;5.482;2023-03-01T06:59:02;34.30;;;13.50;;
53833;SDS011;39735;51.432;5.482;2023-03-01T07:01:28;14.57;;;11.77;;
53833;SDS011;39735;51.432;5.482;2023-03-01T07:03:54;14.00;;;10.43;;
53833;SDS011;39735;51.432;5.482;2023-03-01T07:06:20;24.63;;;11.77;;
53833;SDS011;39735;51.432;5.482;2023-03-01T07:08:46;18.13;;;10.88;;
53833;SDS011;39735;51.432;5.482;2023-03-01T07:11:12;26.80;;;11.80;;
53833;SDS011;39735;51.432;5.482;2023-03-01T07:13:37;27.58;;;10.95;;
53833;SDS011;39735;51.432;5.482;2023-03-01T07:16:02;17.02;;;12.00;;
53833;SDS011;39735;51.432;5.482;2023-03-01T07:18:37;25.27;;;12.23;;
53833;SDS011;39735;51.432;5.482;2023-03-01T07:21:09;18.75;;;11.35;;
53833;SDS011;39735;51.432;5.482;2023-03-01T07:23:36;20.95;;;11.63;;
53833;SDS011;39735;51.432;5.482;2023-03-01T07:26:02;23.83;;;12.02;;
53833;SDS011;39735;51.432;5.482;2023-03-01T07:28:27;29.85;;;11.82;;
53833;SDS011;39735;51.432;5.482;2023-03-01T07:30:53;19.38;;;12.13;;
53833;SDS011;39735;51.432;5.482;2023-03-01T07:33:19;34.35;;;11.52;;
53833;SDS011;39735;51.432;5.482;2023-03-01T07:35:44;30.83;;;12.38;;
53833;SDS011;39735;51.432;5.482;2023-03-01T07:38:09;19.50;;;12.52;;
53833;SDS011;39735;51.432;5.482;2023-03-01T07:40:35;27.13;;;12.20;;
53833;SDS011;39735;51.432;5.482;2023-03-01T07:43:00;30.58;;;12.25;;
53833;SDS011;39735;51.432;5.482;2023-03-01T07:45:26;30.75;;;14.50;;
53833;SDS011;39735;51.432;5.482;2023-03-01T07:47:52;23.35;;;12.20;;
53833;SDS011;39735;51.432;5.482;2023-03-01T07:50:17;34.15;;;13.65;;
53833;SDS011;39735;51.432;5.482;2023-03-01T07:52:45;26.65;;;11.02;;
53833;SDS011;39735;51.432;5.482;2023-03-01T07:55:11;22.73;;;12.10;;
53833;SDS011;39735;51.432;5.482;2023-03-01T07:57:36;18.45;;;12.32;;
53833;SDS011;39735;51.432;5.482;2023-03-01T08:00:02;36.47;;;13.75;;
53833;SDS011;39735;51.432;5.482;2023-03-01T08:02:28;31.05;;;13.18;;
53833;SDS011;39735;51.432;5.482;2023-03-01T08:04:53;28.02;;;15.15;;
53833;SDS011;39735;51.432;5.482;2023-03-01T08:07:18;38.05;;;14.00;;
53833;SDS011;39735;51.432;5.482;2023-03-01T08:09:44;18.60;;;12.43;;
53833;SDS011;39735;51.432;5.482;2023-03-01T08:12:09;18.92;;;10.98;;
53833;SDS011;39735;51.432;5.482;2023-03-01T08:14:35;16.27;;;11.45;;
53833;SDS011;39735;51.432;5.482;2023-03-01T08:17:03;32.65;;;13.60;;
53833;SDS011;39735;51.432;5.482;2023-03-01T08:19:28;15.38;;;11.15;;
53833;SDS011;39735;51.432;5.482;2023-03-01T08:21:54;17.58;;;11.65;;
53833;SDS011;39735;51.432;5.482;2023-03-01T08:24:19;25.98;;;14.73;;
53833;SDS011;39735;51.432;5.482;2023-03-01T08:26:45;19.23;;;11.25;;
53833;SDS011;39735;51.432;5.482;2023-03-01T08:29:10;15.13;;;10.80;;
53833;SDS011;39735;51.432;5.482;2023-03-01T08:31:36;24.75;;;12.93;;
53833;SDS011;39735;51.432;5.482;2023-03-01T08:34:05;20.80;;;10.13;;
53833;SDS011;39735;51.432;5.482;2023-03-01T08:36:34;17.55;;;11.20;;
53833;SDS011;39735;51.432;5.482;2023-03-01T08:39:02;25.02;;;12.70;;
53833;SDS011;39735;51.432;5.482;2023-03-01T08:41:29;21.73;;;12.75;;
53833;SDS011;39735;51.432;5.482;2023-03-01T08:43:55;17.00;;;10.60;;
53833;SDS011;39735;51.432;5.482;2023-03-01T08:46:26;20.42;;;11.57;;
53833;SDS011;39735;51.432;5.482;2023-03-01T08:48:52;17.08;;;10.70;;
53833;SDS011;39735;51.432;5.482;2023-03-01T08:51:18;18.70;;;11.07;;
53833;SDS011;39735;51.432;5.482;2023-03-01T08:53:44;29.15;;;11.02;;
53833;SDS011;39735;51.432;5.482;2023-03-01T08:56:10;24.55;;;10.80;;
53833;SDS011;39735;51.432;5.482;2023-03-01T08:58:36;17.90;;;11.15;;
53833;SDS011;39735;51.432;5.482;2023-03-01T09:01:12;20.05;;;10.27;;
53833;SDS011;39735;51.432;5.482;2023-03-01T09:03:39;17.27;;;10.32;;
53833;SDS011;39735;51.432;5.482;2023-03-01T09:06:05;15.60;;;10.77;;
53833;SDS011;39735;51.432;5.482;2023-03-01T09:08:34;15.40;;;9.43;;
53833;SDS011;39735;51.432;5.482;2023-03-01T09:11:01;22.20;;;10.38;;
53833;SDS011;39735;51.432;5.482;2023-03-01T09:13:28;15.18;;;10.32;;
53833;SDS011;39735;51.432;5.482;2023-03-01T09:15:56;27.25;;;10.55;;
53833;SDS011;39735;51.432;5.482;2023-03-01T09:18:21;19.98;;;10.93;;
53833;SDS011;39735;51.432;5.482;2023-03-01T09:20:47;15.50;;;8.80;;
53833;SDS011;39735;51.432;5.482;2023-03-01T09:23:12;13.02;;;9.15;;
53833;SDS011;39735;51.432;5.482;2023-03-01T09:25:37;22.45;;;10.15;;
53833;SDS011;39735;51.432;5.482;2023-03-01T09:28:03;30.33;;;12.45;;
53833;SDS011;39735;51.432;5.482;2023-03-01T09:30:28;20.63;;;10.48;;
53833;SDS011;39735;51.432;5.482;2023-03-01T09:32:55;33.25;;;13.15;;
53833;SDS011;39735;51.432;5.482;2023-03-01T09:35:21;17.42;;;10.27;;
53833;SDS011;39735;51.432;5.482;2023-03-01T09:37:47;21.88;;;10.75;;
53833;SDS011;39735;51.432;5.482;2023-03-01T09:40:15;23.60;;;11.43;;
53833;SDS011;39735;51.432;5.482;2023-03-01T09:42:48;15.45;;;9.05;;
53833;SDS011;39735;51.432;5.482;2023-03-01T09:45:19;15.65;;;10.07;;
53833;SDS011;39735;51.432;5.482;2023-03-01T09:47:55;22.88;;;11.77;;
53833;SDS011;39735;51.432;5.482;2023-03-01T09:50:21;15.63;;;11.00;;
53833;SDS011;39735;51.432;5.482;2023-03-01T10:01:02;12.60;;;8.73;;
53833;SDS011;39735;51.432;5.482;2023-03-01T10:03:41;22.17;;;10.25;;
53833;SDS011;39735;51.432;5.482;2023-03-01T10:06:15;22.65;;;10.25;;
53833;SDS011;39735;51.432;5.482;2023-03-01T10:08:53;18.17;;;9.88;;
53833;SDS011;39735;51.432;5.482;2023-03-01T10:11:29;18.70;;;11.50;;
53833;SDS011;39735;51.432;5.482;2023-03-01T10:14:17;28.70;;;10.85;;
53833;SDS011;39735;51.432;5.482;2023-03-01T10:17:15;15.40;;;9.95;;
53833;SDS011;39735;51.432;5.482;2023-03-01T10:19:49;23.17;;;11.75;;
53833;SDS011;39735;51.432;5.482;2023-03-01T10:22:25;22.58;;;11.15;;
53833;SDS011;39735;51.432;5.482;2023-03-01T10:24:53;24.48;;;12.13;;
53833;SDS011;39735;51.432;5.482;2023-03-01T10:27:22;25.00;;;10.98;;
53833;SDS011;39735;51.432;5.482;2023-03-01T10:32:24;14.68;;;10.00;;
53833;SDS011;39735;51.432;5.482;2023-03-01T10:34:49;24.38;;;11.30;;
53833;SDS011;39735;51.432;5.482;2023-03-01T10:37:16;21.58;;;11.43;;
53833;SDS011;39735;51.432;5.482;2023-03-01T10:39:54;20.27;;;11.32;;
53833;SDS011;39735;51.432;5.482;2023-03-01T10:42:30;19.27;;;9.80;;
53833;SDS011;39735;51.432;5.482;2023-03-01T10:44:57;18.50;;;10.27;;
53833;SDS011;39735;51.432;5.482;2023-03-01T10:47:41;19.98;;;11.88;;
53833;SDS011;39735;51.432;5.482;2023-03-01T10:50:17;25.08;;;11.93;;
53833;SDS011;39735;51.432;5.482;2023-03-01T10:52:55;21.75;;;10.05;;
53833;SDS011;39735;51.432;5.482;2023-03-01T10:58:08;16.98;;;11.43;;
53833;SDS011;39735;51.432;5.482;2023-03-01T11:00:33;17.60;;;11.23;;
53833;SDS011;39735;51.432;5.482;2023-03-01T11:03:12;19.52;;;10.43;;
53833;SDS011;39735;51.432;5.482;2023-03-01T11:05:52;16.60;;;12.35;;
53833;SDS011;39735;51.432;5.482;2023-03-01T11:14:29;24.35;;;10.90;;
53833;SDS011;39735;51.432;5.482;2023-03-01T11:16:48;15.75;;;9.38;;
53833;SDS011;39735;51.432;5.482;2023-03-01T11:19:22;20.73;;;11.40;;
53833;SDS011;39735;51.432;5.482;2023-03-01T11:22:02;23.63;;;10.80;;
53833;SDS011;39735;51.432;5.482;2023-03-01T11:24:36;18.20;;;12.73;;
53833;SDS011;39735;51.432;5.482;2023-03-01T11:27:06;33.83;;;11.43;;
53833;SDS011;39735;51.432;5.482;2023-03-01T11:30:05;23.33;;;10.27;;
53833;SDS011;39735;51.432;5.482;2023-03-01T11:32:35;16.75;;;10.32;;
53833;SDS011;39735;51.432;5.482;2023-03-01T11:35:09;25.17;;;11.68;;
53833;SDS011;39735;51.432;5.482;2023-03-01T11:37:44;23.08;;;10.43;;
53833;SDS011;39735;51.432;5.482;2023-03-01T11:46:02;25.13;;;10.80;;
53833;SDS011;39735;51.432;5.482;2023-03-01T12:05:49;15.23;;;9.77;;
53833;SDS011;39735;51.432;5.482;2023-03-01T12:08:49;21.02;;;9.00;;
53833;SDS011;39735;51.432;5.482;2023-03-01T12:11:29;19.13;;;9.40;;
53833;SDS011;39735;51.432;5.482;2023-03-01T12:21:54;24.05;;;9.95;;
53833;SDS011;39735;51.432;5.482;2023-03-01T12:35:28;13.85;;;9.02;;
53833;SDS011;39735;51.432;5.482;2023-03-01T12:38:06;21.00;;;9.40;;
53833;SDS011;39735;51.432;5.482;2023-03-01T12:44:08;16.17;;;9.63;;
53833;SDS011;39735;51.432;5.482;2023-03-01T12:52:07;15.13;;;8.82;;
53833;SDS011;39735;51.432;5.482;2023-03-01T12:54:36;23.05;;;8.73;;
53833;SDS011;39735;51.432;5.482;2023-03-01T13:02:50;13.85;;;8.32;;
53833;SDS011;39735;51.432;5.482;2023-03-01T13:07:58;13.52;;;8.73;;
53833;SDS011;39735;51.432;5.482;2023-03-01T13:10:34;13.48;;;8.60;;
53833;SDS011;39735;51.432;5.482;2023-03-01T13:13:28;13.15;;;8.63;;
53833;SDS011;39735;51.432;5.482;2023-03-01T13:15:52;8.40;;;7.63;;
53833;SDS011;39735;51.432;5.482;2023-03-01T13:26:09;16.00;;;8.55;;
53833;SDS011;39735;51.432;5.482;2023-03-01T13:28:41;31.23;;;8.50;;
53833;SDS011;39735;51.432;5.482;2023-03-01T13:33:49;15.98;;;7.93;;
53833;SDS011;39735;51.432;5.482;2023-03-01T13:39:01;16.50;;;8.32;;
53833;SDS011;39735;51.432;5.482;2023-03-01T13:44:13;12.27;;;7.97;;
53833;SDS011;39735;51.432;5.482;2023-03-01T13:46:51;10.57;;;6.65;;
53833;SDS011;39735;51.432;5.482;2023-03-01T13:49:18;12.80;;;8.48;;
53833;SDS011;39735;51.432;5.482;2023-03-01T13:51:49;19.58;;;8.70;;
53833;SDS011;39735;51.432;5.482;2023-03-01T13:54:15;12.40;;;7.47;;
53833;SDS011;39735;51.432;5.482;2023-03-01T13:56:43;11.45;;;6.85;;
53833;SDS011;39735;51.432;5.482;2023-03-01T13:59:16;25.50;;;9.00;;
53833;SDS011;39735;51.432;5.482;2023-03-01T14:01:43;21.80;;;8.30;;
53833;SDS011;39735;51.432;5.482;2023-03-01T14:04:25;16.83;;;7.88;;
53833;SDS011;39735;51.432;5.482;2023-03-01T14:09:37;13.48;;;6.53;;
53833;SDS011;39735;51.432;5.482;2023-03-01T14:20:48;13.40;;;9.57;;
53833;SDS011;39735;51.432;5.482;2023-03-01T14:23:18;21.27;;;8.18;;
53833;SDS011;39735;51.432;5.482;2023-03-01T14:25:50;16.20;;;10.05;;
53833;SDS011;39735;51.432;5.482;2023-03-01T14:30:52;29.20;;;7.97;;
53833;SDS011;39735;51.432;5.482;2023-03-01T14:33:27;19.30;;;9.40;;
53833;SDS011;39735;51.432;5.482;2023-03-01T14:36:02;10.63;;;7.25;;
53833;SDS011;39735;51.432;5.482;2023-03-01T14:38:39;16.63;;;10.57;;
53833;SDS011;39735;51.432;5.482;2023-03-01T14:41:07;17.60;;;7.35;;
53833;SDS011;39735;51.432;5.482;2023-03-01T14:43:38;34.97;;;9.75;;
53833;SDS011;39735;51.432;5.482;2023-03-01T14:46:15;19.00;;;9.52;;
53833;SDS011;39735;51.432;5.482;2023-03-01T14:48:42;17.38;;;9.23;;
53833;SDS011;39735;51.432;5.482;2023-03-01T14:51:07;22.85;;;8.02;;
53833;SDS011;39735;51.432;5.482;2023-03-01T14:53:34;12.20;;;7.70;;
53833;SDS011;39735;51.432;5.482;2023-03-01T14:56:01;17.33;;;8.48;;
53833;SDS011;39735;51.432;5.482;2023-03-01T14:58:31;21.77;;;8.38;;
53833;SDS011;39735;51.432;5.482;2023-03-01T15:00:58;14.88;;;8.05;;
53833;SDS011;39735;51.432;5.482;2023-03-01T15:03:27;24.02;;;7.72;;
53833;SDS011;39735;51.432;5.482;2023-03-01T15:05:56;13.80;;;8.77;;
53833;SDS011;39735;51.432;5.482;2023-03-01T15:08:25;17.60;;;7.95;;
53833;SDS011;39735;51.432;5.482;2023-03-01T15:10:59;11.20;;;7.72;;
53833;SDS011;39735;51.432;5.482;2023-03-01T15:13:40;15.43;;;8.15;;
53833;SDS011;39735;51.432;5.482;2023-03-01T15:18:46;29.88;;;9.25;;
53833;SDS011;39735;51.432;5.482;2023-03-01T15:21:17;21.33;;;9.40;;
53833;SDS011;39735;51.432;5.482;2023-03-01T15:23:48;15.30;;;8.48;;
53833;SDS011;39735;51.432;5.482;2023-03-01T15:26:25;35.97;;;8.93;;
53833;SDS011;39735;51.432;5.482;2023-03-01T15:28:54;17.05;;;9.32;;
53833;SDS011;39735;51.432;5.482;2023-03-01T15:31:29;8.57;;;7.35;;
53833;SDS011;39735;51.432;5.482;2023-03-01T15:36:52;20.35;;;8.60;;
53833;SDS011;39735;51.432;5.482;2023-03-01T15:39:25;17.10;;;9.98;;
53833;SDS011;39735;51.432;5.482;2023-03-01T15:42:17;17.88;;;8.27;;
53833;SDS011;39735;51.432;5.482;2023-03-01T15:45:08;12.60;;;8.25;;
53833;SDS011;39735;51.432;5.482;2023-03-01T15:47:34;14.00;;;9.43;;
53833;SDS011;39735;51.432;5.482;2023-03-01T15:49:59;19.70;;;9.43;;
53833;SDS011;39735;51.432;5.482;2023-03-01T15:52:26;19.60;;;9.02;;
53833;SDS011;39735;51.432;5.482;2023-03-01T15:55:00;15.98;;;9.63;;
53833;SDS011;39735;51.432;5.482;2023-03-01T15:57:27;16.52;;;7.82;;
53833;SDS011;39735;51.432;5.482;2023-03-01T15:59:52;15.70;;;9.40;;
53833;SDS011;39735;51.432;5.482;2023-03-01T16:02:18;30.02;;;10.07;;
53833;SDS011;39735;51.432;5.482;2023-03-01T16:04:45;15.48;;;7.90;;
53833;SDS011;39735;51.432;5.482;2023-03-01T16:07:11;32.17;;;10.32;;
53833;SDS011;39735;51.432;5.482;2023-03-01T16:09:36;19.67;;;9.63;;
53833;SDS011;39735;51.432;5.482;2023-03-01T16:12:02;16.75;;;9.73;;
53833;SDS011;39735;51.432;5.482;2023-03-01T16:14:28;14.23;;;8.85;;
53833;SDS011;39735;51.432;5.482;2023-03-01T16:16:53;17.77;;;9.82;;
53833;SDS011;39735;51.432;5.482;2023-03-01T16:19:18;22.45;;;10.60;;
53833;SDS011;39735;51.432;5.482;2023-03-01T16:21:44;23.38;;;9.15;;
53833;SDS011;39735;51.432;5.482;2023-03-01T16:24:12;15.90;;;10.55;;
53833;SDS011;39735;51.432;5.482;2023-03-01T16:26:38;16.42;;;8.13;;
53833;SDS011;39735;51.432;5.482;2023-03-01T16:29:03;21.85;;;10.18;;
53833;SDS011;39735;51.432;5.482;2023-03-01T16:31:29;13.23;;;9.05;;
53833;SDS011;39735;51.432;5.482;2023-03-01T16:33:55;22.13;;;11.77;;
53833;SDS011;39735;51.432;5.482;2023-03-01T16:36:21;35.55;;;10.85;;
53833;SDS011;39735;51.432;5.482;2023-03-01T16:38:49;14.45;;;10.48;;
53833;SDS011;39735;51.432;5.482;2023-03-01T16:41:15;15.90;;;10.40;;
53833;SDS011;39735;51.432;5.482;2023-03-01T16:43:42;13.10;;;9.45;;
53833;SDS011;39735;51.432;5.482;2023-03-01T16:46:17;17.00;;;11.05;;